N2324K KFRG-KHVN
Flight info
| Callsign | N2324K |
|---|---|
| Flight time | 0h 32m |
| Altitude | 5000 |
| Route | DPK CCC |
| Aircraft | BE58/L-SDFGRY/C |
Departure
| Time | 2026-04-30 01:02 |
|---|---|
| Airport | Republic Airport (KFRG) |
Arrival
| Time | 2026-04-30 01:35 |
|---|---|
| Airport | Tweed New Haven Airport (KHVN) |
| Time | Latitude | Longitude | Altitude | Speed | Heading |
|---|---|---|---|---|---|
| 2026-04-30 00:44 | 40.72422 | -73.41817 | 69 ft | 0 kts | 94° |
| 2026-04-30 00:56 | 40.72394 | -73.41766 | 66 ft | 11 kts | 136° |
| 2026-04-30 00:57 | 40.72371 | -73.41681 | 68 ft | 10 kts | 107° |
| 2026-04-30 00:57 | 40.72349 | -73.41580 | 68 ft | 11 kts | 89° |
| 2026-04-30 00:57 | 40.72395 | -73.41536 | 71 ft | 7 kts | 4° |
| 2026-04-30 00:57 | 40.72435 | -73.41537 | 72 ft | 4 kts | 358° |
| 2026-04-30 00:58 | 40.72461 | -73.41539 | 73 ft | 3 kts | 357° |
| 2026-04-30 00:58 | 40.72484 | -73.41540 | 74 ft | 4 kts | 357° |
| 2026-04-30 00:58 | 40.72524 | -73.41542 | 70 ft | 7 kts | 0° |
| 2026-04-30 00:58 | 40.72574 | -73.41543 | 74 ft | 7 kts | 357° |
| 2026-04-30 00:59 | 40.72657 | -73.41543 | 77 ft | 21 kts | 0° |
| 2026-04-30 00:59 | 40.72836 | -73.41546 | 81 ft | 27 kts | 358° |
| 2026-04-30 00:59 | 40.72915 | -73.41586 | 74 ft | 10 kts | 298° |
| 2026-04-30 00:59 | 40.72998 | -73.41713 | 82 ft | 22 kts | 311° |
| 2026-04-30 01:00 | 40.73128 | -73.41901 | 80 ft | 29 kts | 313° |
| 2026-04-30 01:00 | 40.73253 | -73.42082 | 85 ft | 25 kts | 313° |
| 2026-04-30 01:00 | 40.73329 | -73.42175 | 88 ft | 8 kts | 7° |
| 2026-04-30 01:00 | 40.73348 | -73.42163 | 90 ft | 0 kts | 39° |
| 2026-04-30 01:02 | 40.73377 | -73.42130 | 89 ft | 11 kts | 42° |
| 2026-04-30 01:02 | 40.73322 | -73.41966 | 82 ft | 60 kts | 134° |
| 2026-04-30 01:02 | 40.72851 | -73.41302 | 170 ft | 124 kts | 131° |
| 2026-04-30 01:02 | 40.72266 | -73.40482 | 858 ft | 115 kts | 134° |
| 2026-04-30 01:03 | 40.71634 | -73.39926 | 1630 ft | 113 kts | 167° |
| 2026-04-30 01:03 | 40.70869 | -73.40147 | 2235 ft | 122 kts | 212° |
| 2026-04-30 01:03 | 40.70062 | -73.40955 | 2168 ft | 166 kts | 217° |
| 2026-04-30 01:03 | 40.69171 | -73.41959 | 2010 ft | 167 kts | 217° |
| 2026-04-30 01:04 | 40.68262 | -73.42848 | 1996 ft | 158 kts | 211° |
| 2026-04-30 01:04 | 40.67392 | -73.43630 | 2130 ft | 148 kts | 210° |
| 2026-04-30 01:04 | 40.66480 | -73.44347 | 2065 ft | 150 kts | 207° |
| 2026-04-30 01:04 | 40.65569 | -73.45038 | 2021 ft | 153 kts | 206° |
| 2026-04-30 01:05 | 40.64631 | -73.45693 | 1982 ft | 151 kts | 204° |
| 2026-04-30 01:05 | 40.63733 | -73.46307 | 2043 ft | 140 kts | 205° |
| 2026-04-30 01:05 | 40.62883 | -73.46929 | 2019 ft | 141 kts | 206° |
| 2026-04-30 01:05 | 40.62012 | -73.47563 | 1961 ft | 142 kts | 205° |
| 2026-04-30 01:06 | 40.61150 | -73.48162 | 1984 ft | 137 kts | 205° |
| 2026-04-30 01:06 | 40.60343 | -73.48773 | 2053 ft | 131 kts | 207° |
| 2026-04-30 01:06 | 40.59580 | -73.49382 | 2190 ft | 123 kts | 197° |
| 2026-04-30 01:06 | 40.58793 | -73.49245 | 2349 ft | 128 kts | 140° |
| 2026-04-30 01:07 | 40.58496 | -73.48096 | 2763 ft | 145 kts | 84° |
| 2026-04-30 01:07 | 40.59073 | -73.46915 | 2942 ft | 168 kts | 50° |
| 2026-04-30 01:07 | 40.59850 | -73.45763 | 2911 ft | 174 kts | 53° |
| 2026-04-30 01:07 | 40.60653 | -73.44581 | 2966 ft | 173 kts | 46° |
| 2026-04-30 01:08 | 40.61690 | -73.43701 | 2838 ft | 185 kts | 26° |
| 2026-04-30 01:08 | 40.62893 | -73.43094 | 2829 ft | 182 kts | 21° |
| 2026-04-30 01:08 | 40.64049 | -73.42573 | 2995 ft | 173 kts | 19° |
| 2026-04-30 01:08 | 40.65206 | -73.42107 | 3003 ft | 174 kts | 19° |
| 2026-04-30 01:09 | 40.66376 | -73.41580 | 2980 ft | 172 kts | 19° |
| 2026-04-30 01:09 | 40.67546 | -73.41174 | 2905 ft | 179 kts | 13° |
| 2026-04-30 01:09 | 40.68786 | -73.40849 | 2797 ft | 183 kts | 10° |
| 2026-04-30 01:09 | 40.70010 | -73.40583 | 2884 ft | 174 kts | 18° |
| 2026-04-30 01:10 | 40.71138 | -73.40111 | 2974 ft | 171 kts | 20° |
| 2026-04-30 01:10 | 40.72265 | -73.39590 | 2991 ft | 173 kts | 25° |
| 2026-04-30 01:10 | 40.73374 | -73.38969 | 3006 ft | 174 kts | 25° |
| 2026-04-30 01:10 | 40.74485 | -73.38338 | 3007 ft | 174 kts | 25° |
| 2026-04-30 01:11 | 40.75601 | -73.37705 | 3006 ft | 174 kts | 25° |
| 2026-04-30 01:11 | 40.76732 | -73.37060 | 3014 ft | 182 kts | 25° |
| 2026-04-30 01:11 | 40.77906 | -73.36375 | 3021 ft | 186 kts | 26° |
| 2026-04-30 01:11 | 40.79081 | -73.35680 | 3008 ft | 188 kts | 26° |
| 2026-04-30 01:12 | 40.80283 | -73.34972 | 3008 ft | 190 kts | 26° |
| 2026-04-30 01:12 | 40.81492 | -73.34259 | 3009 ft | 191 kts | 26° |
| 2026-04-30 01:12 | 40.82709 | -73.33545 | 3008 ft | 191 kts | 26° |
| 2026-04-30 01:12 | 40.83925 | -73.32836 | 3011 ft | 191 kts | 26° |
| 2026-04-30 01:13 | 40.85140 | -73.32127 | 3007 ft | 191 kts | 26° |
| 2026-04-30 01:13 | 40.86357 | -73.31413 | 3007 ft | 191 kts | 26° |
| 2026-04-30 01:13 | 40.87574 | -73.30702 | 3002 ft | 191 kts | 26° |
| 2026-04-30 01:13 | 40.88786 | -73.29993 | 2991 ft | 189 kts | 26° |
| 2026-04-30 01:14 | 40.89978 | -73.29294 | 2988 ft | 186 kts | 26° |
| 2026-04-30 01:14 | 40.90760 | -73.28828 | 2985 ft | 185 kts | 26° |
| 2026-04-30 01:14 | 40.92317 | -73.27908 | 2988 ft | 184 kts | 26° |
| 2026-04-30 01:14 | 40.93446 | -73.27238 | 2987 ft | 184 kts | 26° |
| 2026-04-30 01:15 | 40.94616 | -73.26547 | 2985 ft | 184 kts | 26° |
| 2026-04-30 01:15 | 40.95784 | -73.25861 | 2983 ft | 183 kts | 26° |
| 2026-04-30 01:15 | 40.96953 | -73.25174 | 2984 ft | 183 kts | 26° |
| 2026-04-30 01:15 | 40.98118 | -73.24489 | 2984 ft | 183 kts | 26° |
| 2026-04-30 01:16 | 40.99285 | -73.23809 | 2984 ft | 183 kts | 26° |
| 2026-04-30 01:16 | 41.00450 | -73.23131 | 2983 ft | 183 kts | 26° |
| 2026-04-30 01:16 | 41.01617 | -73.22448 | 2983 ft | 183 kts | 26° |
| 2026-04-30 01:16 | 41.02781 | -73.21767 | 2982 ft | 183 kts | 26° |
| 2026-04-30 01:17 | 41.03945 | -73.21088 | 2981 ft | 183 kts | 26° |
| 2026-04-30 01:17 | 41.05107 | -73.20401 | 2981 ft | 182 kts | 27° |
| 2026-04-30 01:17 | 41.06229 | -73.19658 | 2978 ft | 182 kts | 31° |
| 2026-04-30 01:17 | 41.07316 | -73.18801 | 2978 ft | 183 kts | 34° |
| 2026-04-30 01:18 | 41.08412 | -73.17911 | 2979 ft | 185 kts | 34° |
| 2026-04-30 01:18 | 41.09513 | -73.17020 | 2981 ft | 186 kts | 34° |
| 2026-04-30 01:18 | 41.10618 | -73.16124 | 2986 ft | 186 kts | 34° |
| 2026-04-30 01:18 | 41.11723 | -73.15227 | 2988 ft | 187 kts | 34° |
| 2026-04-30 01:19 | 41.12830 | -73.14324 | 2988 ft | 187 kts | 34° |
| 2026-04-30 01:19 | 41.13936 | -73.13425 | 2987 ft | 186 kts | 34° |
| 2026-04-30 01:19 | 41.15040 | -73.12529 | 2988 ft | 186 kts | 34° |
| 2026-04-30 01:19 | 41.16070 | -73.11515 | 2986 ft | 183 kts | 56° |
| 2026-04-30 01:20 | 41.16386 | -73.09964 | 2984 ft | 175 kts | 94° |
| 2026-04-30 01:20 | 41.16506 | -73.08369 | 2989 ft | 178 kts | 84° |
| 2026-04-30 01:20 | 41.16721 | -73.06751 | 2992 ft | 178 kts | 84° |
| 2026-04-30 01:20 | 41.16935 | -73.05134 | 2994 ft | 179 kts | 84° |
| 2026-04-30 01:21 | 41.17151 | -73.03508 | 2995 ft | 179 kts | 84° |
| 2026-04-30 01:21 | 41.17366 | -73.01881 | 2996 ft | 179 kts | 84° |
| 2026-04-30 01:21 | 41.17576 | -73.00249 | 2996 ft | 179 kts | 84° |
| 2026-04-30 01:21 | 41.17791 | -72.98617 | 2993 ft | 179 kts | 84° |
| 2026-04-30 01:22 | 41.18004 | -72.97006 | 2823 ft | 174 kts | 84° |
| 2026-04-30 01:22 | 41.18217 | -72.95441 | 2615 ft | 171 kts | 84° |
| 2026-04-30 01:22 | 41.18414 | -72.93898 | 2396 ft | 168 kts | 84° |
| 2026-04-30 01:22 | 41.18552 | -72.92369 | 2188 ft | 166 kts | 88° |
| 2026-04-30 01:23 | 41.18651 | -72.90850 | 1983 ft | 165 kts | 88° |
| 2026-04-30 01:23 | 41.18844 | -72.89360 | 1767 ft | 166 kts | 66° |
| 2026-04-30 01:23 | 41.19702 | -72.88353 | 1568 ft | 172 kts | 31° |
| 2026-04-30 01:23 | 41.20817 | -72.87846 | 1489 ft | 167 kts | 11° |
| 2026-04-30 01:24 | 41.21954 | -72.87732 | 1481 ft | 162 kts | 2° |
| 2026-04-30 01:24 | 41.23010 | -72.87789 | 1473 ft | 137 kts | 359° |
| 2026-04-30 01:24 | 41.23870 | -72.87954 | 1393 ft | 125 kts | 345° |
| 2026-04-30 01:24 | 41.24715 | -72.87946 | 1589 ft | 113 kts | 6° |
| 2026-04-30 01:25 | 41.25497 | -72.88162 | 1678 ft | 123 kts | 355° |
| 2026-04-30 01:25 | 41.26211 | -72.88662 | 1859 ft | 120 kts | 307° |
| 2026-04-30 01:25 | 41.26701 | -72.89612 | 1933 ft | 133 kts | 300° |
| 2026-04-30 01:25 | 41.26945 | -72.90793 | 1909 ft | 130 kts | 262° |
| 2026-04-30 01:26 | 41.26545 | -72.91816 | 1650 ft | 131 kts | 211° |
| 2026-04-30 01:26 | 41.25703 | -72.92054 | 1517 ft | 121 kts | 180° |
| 2026-04-30 01:26 | 41.24942 | -72.92527 | 1269 ft | 130 kts | 210° |
| 2026-04-30 01:26 | 41.24143 | -72.92799 | 1258 ft | 115 kts | 181° |
| 2026-04-30 01:27 | 41.23340 | -72.92866 | 1127 ft | 117 kts | 179° |
| 2026-04-30 01:27 | 41.22557 | -72.92667 | 870 ft | 120 kts | 144° |
| 2026-04-30 01:27 | 41.22138 | -72.91736 | 577 ft | 126 kts | 100° |
| 2026-04-30 01:27 | 41.22066 | -72.90622 | 496 ft | 118 kts | 95° |
| 2026-04-30 01:28 | 41.22038 | -72.89543 | 413 ft | 115 kts | 91° |
| 2026-04-30 01:28 | 41.22253 | -72.88576 | 315 ft | 115 kts | 41° |
| 2026-04-30 01:28 | 41.23023 | -72.88439 | 104 ft | 117 kts | 345° |
| 2026-04-30 01:28 | 41.23825 | -72.88749 | 354 ft | 122 kts | 336° |
| 2026-04-30 01:29 | 41.24549 | -72.88912 | 327 ft | 95 kts | 4° |
| 2026-04-30 01:29 | 41.25249 | -72.88850 | 176 ft | 99 kts | 3° |
| 2026-04-30 01:29 | 41.25854 | -72.88818 | 14 ft | 73 kts | 4° |
| 2026-04-30 01:29 | 41.26428 | -72.88767 | 26 ft | 112 kts | 2° |
| 2026-04-30 01:30 | 41.27204 | -72.88671 | 693 ft | 100 kts | 7° |
| 2026-04-30 01:30 | 41.27949 | -72.88601 | 1279 ft | 112 kts | 347° |
| 2026-04-30 01:30 | 41.28421 | -72.89379 | 1425 ft | 122 kts | 268° |
| 2026-04-30 01:30 | 41.28210 | -72.90468 | 1549 ft | 126 kts | 246° |
| 2026-04-30 01:31 | 41.27840 | -72.91545 | 1585 ft | 132 kts | 223° |
| 2026-04-30 01:31 | 41.27054 | -72.91898 | 1705 ft | 122 kts | 167° |
| 2026-04-30 01:31 | 41.26189 | -72.91775 | 1690 ft | 124 kts | 176° |
| 2026-04-30 01:31 | 41.25327 | -72.91739 | 1557 ft | 125 kts | 174° |
| 2026-04-30 01:32 | 41.24758 | -72.91736 | 1542 ft | 123 kts | 181° |
| 2026-04-30 01:32 | 41.23694 | -72.91922 | 1483 ft | 117 kts | 182° |
| 2026-04-30 01:32 | 41.22885 | -72.92113 | 1453 ft | 117 kts | 188° |
| 2026-04-30 01:32 | 41.22098 | -72.92216 | 1171 ft | 117 kts | 168° |
| 2026-04-30 01:33 | 41.21433 | -72.91660 | 878 ft | 113 kts | 122° |
| 2026-04-30 01:33 | 41.21336 | -72.90584 | 528 ft | 122 kts | 81° |
| 2026-04-30 01:33 | 41.21497 | -72.89577 | 542 ft | 101 kts | 77° |
| 2026-04-30 01:33 | 41.21914 | -72.88865 | 604 ft | 110 kts | 11° |
| 2026-04-30 01:34 | 41.22680 | -72.88945 | 670 ft | 116 kts | 352° |
| 2026-04-30 01:34 | 41.23476 | -72.88993 | 568 ft | 113 kts | 4° |
| 2026-04-30 01:34 | 41.24245 | -72.88932 | 391 ft | 107 kts | 4° |
| 2026-04-30 01:34 | 41.24976 | -72.88865 | 201 ft | 105 kts | 1° |
| 2026-04-30 01:35 | 41.25680 | -72.88823 | 45 ft | 90 kts | 1° |
| 2026-04-30 01:35 | 41.26180 | -72.88787 | 13 ft | 43 kts | 3° |
| 2026-04-30 01:35 | 41.26255 | -72.88706 | 11 ft | 12 kts | 75° |
| 2026-04-30 01:35 | 41.26264 | -72.88672 | 10 ft | 0 kts | 71° |
| 2026-04-30 01:36 | 41.26265 | -72.88665 | 10 ft | 5 kts | 71° |
| 2026-04-30 01:36 | 41.26289 | -72.88597 | 10 ft | 9 kts | 48° |
| 2026-04-30 01:36 | 41.26357 | -72.88532 | 11 ft | 9 kts | 33° |
| 2026-04-30 01:37 | 41.26392 | -72.88496 | 11 ft | 11 kts | 37° |
| 2026-04-30 01:37 | 41.26464 | -72.88474 | 10 ft | 12 kts | 317° |
| 2026-04-30 01:37 | 41.26519 | -72.88557 | 10 ft | 12 kts | 310° |
| 2026-04-30 01:37 | 41.26584 | -72.88651 | 9 ft | 14 kts | 321° |
| 2026-04-30 01:38 | 41.26627 | -72.88640 | 9 ft | 6 kts | 64° |
| 2026-04-30 01:38 | 41.26655 | -72.88604 | 9 ft | 5 kts | 36° |
| 2026-04-30 01:38 | 41.26705 | -72.88534 | 12 ft | 9 kts | 74° |
| 2026-04-30 01:38 | 41.26689 | -72.88464 | 13 ft | 9 kts | 118° |
| 2026-04-30 01:39 | 41.26694 | -72.88408 | 14 ft | 5 kts | 48° |
| 2026-04-30 01:39 | 41.26717 | -72.88418 | 14 ft | 9 kts | 300° |
| 2026-04-30 01:39 | 41.26751 | -72.88485 | 13 ft | 9 kts | 289° |
| 2026-04-30 01:39 | 41.26788 | -72.88513 | 12 ft | 6 kts | 34° |
| 2026-04-30 01:40 | 41.26777 | -72.88488 | 12 ft | 3 kts | 169° |
| 2026-04-30 01:40 | 41.26763 | -72.88490 | 13 ft | 1 kts | 214° |
| 2026-04-30 01:40 | 41.26763 | -72.88491 | 13 ft | 0 kts | 214° |